createdAt,value
2023-04-07T04:43:26.214Z,38.07
2023-04-07T04:45:53.884Z,37.97
2023-04-07T04:48:25.060Z,37.73
2023-04-07T04:50:52.411Z,39.00
2023-04-07T04:53:19.691Z,38.10
2023-04-07T04:55:53.265Z,39.33
2023-04-07T04:58:32.346Z,39.17
2023-04-07T05:01:00.730Z,39.97
2023-04-07T05:03:36.628Z,39.47
2023-04-07T05:06:11.606Z,39.53
2023-04-07T05:08:41.456Z,39.77
2023-04-07T05:11:09.979Z,38.97
2023-04-07T05:13:38.548Z,38.37
2023-04-07T05:16:06.674Z,39.27
2023-04-07T05:18:35.603Z,40.67
2023-04-07T05:21:04.962Z,38.93
2023-04-07T05:23:35.116Z,39.73
2023-04-07T05:26:03.364Z,40.90
2023-04-07T05:28:31.650Z,38.37
2023-04-07T05:31:07.014Z,38.97
2023-04-07T05:33:36.091Z,41.00
2023-04-07T05:36:04.079Z,39.97
2023-04-07T05:38:33.827Z,41.00
2023-04-07T05:41:08.735Z,38.50
2023-04-07T05:43:37.398Z,39.60
2023-04-07T05:46:05.853Z,39.70
2023-04-07T05:48:36.691Z,39.37
2023-04-07T05:51:04.686Z,38.90
2023-04-07T05:53:32.151Z,40.47
2023-04-07T05:55:59.471Z,38.33
2023-04-07T05:58:42.003Z,40.33
2023-04-07T06:01:10.871Z,39.17
2023-04-07T06:03:38.316Z,39.53
2023-04-07T06:06:13.568Z,39.57
2023-04-07T06:08:40.946Z,38.67
2023-04-07T06:11:08.343Z,39.33
2023-04-07T06:13:35.684Z,37.23
2023-04-07T06:16:03.597Z,38.57
2023-04-07T06:18:31.210Z,38.33
2023-04-07T06:20:59.730Z,37.97
2023-04-07T06:23:28.240Z,37.23
2023-04-07T06:25:55.860Z,36.90
2023-04-07T06:28:23.337Z,37.17
2023-04-07T06:30:51.139Z,37.27
2023-04-07T06:33:18.810Z,36.90
2023-04-07T06:35:46.579Z,38.23
2023-04-07T06:38:14.030Z,37.27
2023-04-07T06:40:41.352Z,37.73
2023-04-07T06:43:08.864Z,37.20
2023-04-07T06:45:43.994Z,36.50
2023-04-07T06:48:11.441Z,36.93
2023-04-07T06:50:38.945Z,37.50
2023-04-07T06:53:06.224Z,37.83
2023-04-07T06:55:33.580Z,36.37
2023-04-07T07:02:51.379Z,36.83
2023-04-07T07:05:18.825Z,38.00
2023-04-07T07:07:46.228Z,36.03
2023-04-07T07:10:13.718Z,35.83
2023-04-07T07:12:41.301Z,37.17
2023-04-07T07:15:08.887Z,35.70
2023-04-07T07:17:36.483Z,35.80
2023-04-07T07:20:03.944Z,36.17
2023-04-07T07:22:31.314Z,35.27
2023-04-07T07:24:58.618Z,36.40
2023-04-07T07:27:25.931Z,36.33
2023-04-07T07:29:53.346Z,37.00
2023-04-07T07:32:20.824Z,35.67
2023-04-07T07:34:48.165Z,35.90
2023-04-07T07:37:15.956Z,35.33
2023-04-07T07:39:43.278Z,36.73
2023-04-07T07:42:10.744Z,36.43
2023-04-07T07:44:38.062Z,37.50
2023-04-07T07:47:05.601Z,35.53
2023-04-07T07:49:33.018Z,34.10
2023-04-07T07:52:00.920Z,34.07
2023-04-07T07:54:28.338Z,34.03
2023-04-07T07:56:55.704Z,33.27
2023-04-07T07:59:23.037Z,32.90
2023-04-07T08:01:50.517Z,34.20
2023-04-07T08:04:18.240Z,33.57
2023-04-07T08:06:45.970Z,33.80
2023-04-07T08:09:13.332Z,33.90
2023-04-07T08:11:40.742Z,33.60
2023-04-07T08:14:09.817Z,32.17
2023-04-07T08:16:37.487Z,33.53
2023-04-07T08:19:04.893Z,33.00
2023-04-07T08:21:32.359Z,31.97
2023-04-07T08:24:01.004Z,31.80
2023-04-07T08:26:28.615Z,31.47
2023-04-07T08:28:56.186Z,31.00
2023-04-07T08:31:23.640Z,30.70
2023-04-07T08:33:58.245Z,29.93
2023-04-07T08:36:27.620Z,29.77
2023-04-07T08:38:55.162Z,29.90
2023-04-07T08:41:28.766Z,29.20
2023-04-07T08:43:58.132Z,28.73
2023-04-07T08:46:26.347Z,29.07
2023-04-07T08:48:54.248Z,28.90
2023-04-07T08:51:28.657Z,28.80
2023-04-07T11:50:43.806Z,19.27
2023-04-07T11:53:11.649Z,18.85
2023-04-07T11:55:39.403Z,17.30
2023-04-07T11:58:10.182Z,18.40
2023-04-07T12:00:37.603Z,19.70
2023-04-07T12:03:14.736Z,19.10
2023-04-07T12:05:43.204Z,19.90
2023-04-07T12:08:10.608Z,19.57
2023-04-07T12:10:40.494Z,19.13
2023-04-07T12:13:08.836Z,19.10
2023-04-07T12:15:39.632Z,19.13
2023-04-07T12:18:07.082Z,18.90
2023-04-07T12:20:36.006Z,19.10
2023-04-07T12:23:04.938Z,19.27
2023-04-07T12:25:32.278Z,19.43
2023-04-07T12:27:59.574Z,18.80
2023-04-07T12:30:26.945Z,20.60
2023-04-07T12:32:54.587Z,20.85
2023-04-07T12:35:22.047Z,20.87
2023-04-07T12:37:50.194Z,19.73
2023-04-07T12:40:18.168Z,19.67
2023-04-07T12:42:45.596Z,20.40
2023-04-07T12:45:12.974Z,19.47
2023-04-07T12:47:40.690Z,19.23
2023-04-07T12:50:08.179Z,18.30
2023-04-07T12:52:36.313Z,16.23
2023-04-07T12:55:03.726Z,15.17
2023-04-07T12:57:31.172Z,14.60
2023-04-07T12:59:59.200Z,8.60
2023-04-07T13:02:27.536Z,9.47
2023-04-07T13:04:55.029Z,8.07
2023-04-07T13:07:22.392Z,7.10
2023-04-07T13:09:49.797Z,6.50
2023-04-07T13:12:17.143Z,5.53
2023-04-07T13:14:57.178Z,5.40
2023-04-07T13:17:35.143Z,4.80
2023-04-07T13:20:05.271Z,4.90
2023-04-07T13:22:34.223Z,4.20
2023-04-07T13:25:09.607Z,4.10
2023-04-07T13:27:37.102Z,3.97
2023-04-07T13:30:04.820Z,3.57
2023-04-07T13:32:32.428Z,3.80
2023-04-07T13:35:00.081Z,3.60
2023-04-07T13:37:27.488Z,3.50
2023-04-07T15:25:17.085Z,4.33
2023-04-07T15:27:46.696Z,3.90
2023-04-07T15:30:14.047Z,4.33
2023-04-07T15:32:41.400Z,3.97
2023-04-07T15:35:09.060Z,4.00
2023-04-07T15:37:36.607Z,3.93
2023-04-07T15:40:03.990Z,4.20
2023-04-07T15:42:31.894Z,3.70
2023-04-07T15:44:59.237Z,3.17
2023-04-07T15:47:26.651Z,3.53
2023-04-07T15:49:54.067Z,3.33
2023-04-07T15:52:21.353Z,3.57
2023-04-07T15:54:48.825Z,3.30
2023-04-07T15:57:16.790Z,3.50
2023-04-07T15:59:44.165Z,3.70
2023-04-07T16:02:14.175Z,3.67
2023-04-07T16:04:42.005Z,3.80
2023-04-07T16:07:09.333Z,3.93
2023-04-07T16:09:36.654Z,3.70
2023-04-07T16:12:04.019Z,3.93
2023-04-07T16:14:31.724Z,3.90
2023-04-07T16:16:59.426Z,4.03
2023-04-07T16:19:26.827Z,3.93
2023-04-07T16:21:54.798Z,3.77
2023-04-07T16:24:22.326Z,3.97
2023-04-07T16:26:53.704Z,3.97
2023-04-07T16:29:22.404Z,3.37
2023-04-07T16:31:50.037Z,3.33
2023-04-07T16:34:17.389Z,3.70
2023-04-07T16:36:44.809Z,3.97
2023-04-07T16:39:12.200Z,3.43
2023-04-07T16:41:39.522Z,3.60
2023-04-07T16:44:07.145Z,3.00
2023-04-07T16:46:34.611Z,3.10
2023-04-07T16:49:03.446Z,3.17
2023-04-07T16:51:31.886Z,3.50
2023-04-07T16:53:59.263Z,3.40
2023-04-07T16:56:26.620Z,3.67
2023-04-07T16:58:54.020Z,3.63
2023-04-07T17:01:21.476Z,3.50
2023-04-07T17:03:49.401Z,3.63
2023-04-07T17:06:17.017Z,3.40
2023-04-07T17:08:44.491Z,4.00
2023-04-07T17:11:13.178Z,3.90
2023-04-07T17:13:40.800Z,3.70
2023-04-07T17:16:13.406Z,3.67
2023-04-07T17:18:41.045Z,3.80
2023-04-07T17:21:08.435Z,3.90
2023-04-07T17:23:35.808Z,3.43
2023-04-07T17:26:03.142Z,3.67
2023-04-07T17:28:30.434Z,3.60
2023-04-07T17:30:58.562Z,3.97
2023-04-07T17:33:26.178Z,3.63
2023-04-07T17:35:53.649Z,3.83
2023-04-07T17:38:21.059Z,3.80
2023-04-07T17:40:48.428Z,3.90
2023-04-07T17:43:15.842Z,4.30
2023-04-07T17:45:43.295Z,4.37
2023-04-07T17:48:12.139Z,4.37
2023-04-07T17:50:39.768Z,5.07
2023-04-07T17:53:07.870Z,4.60
2023-04-07T17:55:35.193Z,5.23
2023-04-07T17:58:02.546Z,4.20
2023-04-07T18:00:30.641Z,4.83
2023-04-07T18:02:58.613Z,4.70
2023-04-07T18:05:27.120Z,5.03
2023-04-07T18:07:54.946Z,4.67
2023-04-07T18:10:22.404Z,4.50
2023-04-07T18:12:49.749Z,5.37
2023-04-07T18:15:17.316Z,4.60
2023-04-07T18:17:44.725Z,4.73
2023-04-07T18:20:13.215Z,4.77
2023-04-07T18:22:40.946Z,4.87
2023-04-07T18:25:09.605Z,4.70
2023-04-07T18:27:36.904Z,4.67
2023-04-07T18:30:04.518Z,4.30
2023-04-07T18:32:31.971Z,4.23
2023-04-07T18:34:59.329Z,4.20
2023-04-07T18:37:27.241Z,4.30
2023-04-07T18:39:54.640Z,4.60
2023-04-07T18:42:22.313Z,4.33
2023-04-07T18:44:49.677Z,4.20
2023-04-07T18:47:17.342Z,4.47
2023-04-07T18:49:44.992Z,4.50
2023-04-07T18:52:12.397Z,4.67
2023-04-07T18:54:39.714Z,4.90
2023-04-07T18:57:07.075Z,5.07
2023-04-07T18:59:34.409Z,5.00
2023-04-07T19:02:01.851Z,5.37
2023-04-07T19:04:29.261Z,5.37
2023-04-07T19:06:57.638Z,5.43
2023-04-07T19:09:26.011Z,5.83
2023-04-07T19:11:53.593Z,6.27
2023-04-07T19:14:21.105Z,6.07
2023-04-07T19:16:48.474Z,6.23
2023-04-07T19:19:16.944Z,6.67
2023-04-07T19:21:44.331Z,6.70
2023-04-07T19:24:11.853Z,6.83
2023-04-07T19:26:39.250Z,7.23
2023-04-07T19:29:07.163Z,6.33
2023-04-07T19:31:35.384Z,7.77
2023-04-07T19:34:02.730Z,7.10
2023-04-07T19:36:31.223Z,7.10
2023-04-07T19:38:58.515Z,6.93
2023-04-07T19:41:26.065Z,7.07
2023-04-07T19:43:53.505Z,6.70
2023-04-07T19:46:20.991Z,7.30
2023-04-07T19:48:48.654Z,8.07
2023-04-07T19:51:16.714Z,7.93
2023-04-07T19:53:43.999Z,7.40
2023-04-07T19:56:11.385Z,7.23
2023-04-07T19:58:38.681Z,6.40
2023-04-07T20:01:06.048Z,7.13
2023-04-07T20:03:33.728Z,6.23
2023-04-07T20:06:01.082Z,7.10
2023-04-07T20:08:28.506Z,6.00
2023-04-07T20:10:56.006Z,6.43
2023-04-07T20:13:23.923Z,6.03
2023-04-07T20:15:51.266Z,6.40
2023-04-07T20:18:18.704Z,6.80
2023-04-07T20:20:46.667Z,6.10
2023-04-07T20:23:16.027Z,6.60
2023-04-07T20:25:43.418Z,6.67
2023-04-07T20:28:10.916Z,6.53
2023-04-07T20:30:38.267Z,7.03
2023-04-07T20:33:05.688Z,6.80
2023-04-07T20:35:33.064Z,7.00
2023-04-07T20:38:01.225Z,7.17
2023-04-07T20:40:28.506Z,7.07
2023-04-07T20:42:56.270Z,7.23
2023-04-07T20:45:23.620Z,6.57
2023-04-07T20:47:51.110Z,5.90
2023-04-07T20:50:18.560Z,5.30
2023-04-07T20:52:46.018Z,5.50
2023-04-07T20:55:13.514Z,5.60
2023-04-07T20:57:40.874Z,6.53
2023-04-07T21:00:10.249Z,7.03
2023-04-07T21:02:38.037Z,6.63
2023-04-07T21:05:05.833Z,6.63
2023-04-07T21:07:33.124Z,7.00
2023-04-07T21:10:00.443Z,7.10
2023-04-07T21:12:27.740Z,7.20
2023-04-07T21:14:55.082Z,7.13
2023-04-07T21:17:22.658Z,8.00
2023-04-07T21:19:50.039Z,7.47
2023-04-07T21:22:17.318Z,7.77
2023-04-07T21:24:44.642Z,7.73
2023-04-07T21:27:12.305Z,7.97
2023-04-07T21:29:42.440Z,7.57
2023-04-07T21:32:10.435Z,7.77
2023-04-07T21:34:37.796Z,7.97
2023-04-07T21:37:05.151Z,7.63
2023-04-07T21:39:35.993Z,7.47
2023-04-07T21:42:04.561Z,7.60
2023-04-07T21:44:31.978Z,7.97
2023-04-07T21:46:59.417Z,7.47
2023-04-07T21:49:27.528Z,7.70
2023-04-07T21:51:56.968Z,7.90
2023-04-07T21:54:25.063Z,7.33
2023-04-07T21:56:52.823Z,7.47
2023-04-07T21:59:20.136Z,7.10
2023-04-07T22:01:47.496Z,7.87
